Time;durP1;ratioP1;P1;durP2;ratioP2;P2;SDS_P1;SDS_P2;PMS_P1;PMS_P2;Temp;Humidity;BMP_temperature;BMP_pressure;BME280_temperature;BME280_humidity;BME280_pressure;Samples;Min_cycle;Max_cycle;Signal;HPM_P1;HPM_P2
2022/01/28 00:04:52;;;;;;;9.73;1.33;;;4.90;99.90;;;;;;5035498;28;20515;-81
2022/01/28 00:07:18;;;;;;;10.57;1.75;;;5.00;99.90;;;;;;5053254;28;20135;-82
2022/01/28 00:09:44;;;;;;;9.05;1.77;;;4.90;99.90;;;;;;5052867;28;20069;-81
2022/01/28 00:12:11;;;;;;;12.65;3.10;;;4.90;99.90;;;;;;5053948;28;20124;-81
2022/01/28 00:14:52;;;;;;;15.32;2.88;;;4.80;99.90;;;;;;5041839;28;20158;-82
2022/01/28 00:20:52;;;;;;;10.23;1.98;;;4.70;99.90;;;;;;5016633;28;20105;-82
2022/01/28 00:37:07;;;;;;;7.30;1.63;;;4.80;99.90;;;;;;5062354;28;20041;-82
2022/01/28 00:39:34;;;;;;;9.23;1.40;;;4.80;99.90;;;;;;5068693;28;20109;-82
2022/01/28 00:41:59;;;;;;;12.40;2.53;;;4.80;99.90;;;;;;5044987;28;20092;-83
2022/01/28 00:44:25;;;;;;;10.00;1.25;;;4.70;99.90;;;;;;5058127;28;20048;-82
2022/01/28 00:46:51;;;;;;;7.35;1.55;;;4.70;99.90;;;;;;5071779;28;20064;-83
2022/01/28 00:49:16;;;;;;;9.27;1.30;;;4.60;99.90;;;;;;5073143;28;20039;-82
2022/01/28 00:51:42;;;;;;;13.90;2.00;;;4.60;99.90;;;;;;5072971;28;20028;-82
2022/01/28 00:54:08;;;;;;;10.55;1.25;;;4.60;99.90;;;;;;5068345;28;20041;-84
2022/01/28 00:56:34;;;;;;;13.98;2.22;;;4.60;99.90;;;;;;5061981;28;20040;-81
2022/01/28 00:58:59;;;;;;;15.23;2.28;;;4.60;99.90;;;;;;5054171;28;20052;-81
2022/01/28 01:01:29;;;;;;;12.05;2.33;;;4.70;99.90;;;;;;5056828;28;20500;-81
2022/01/28 01:03:55;;;;;;;9.15;1.60;;;4.70;99.90;;;;;;5023438;28;20128;-81
2022/01/28 01:06:21;;;;;;;18.33;1.77;;;4.80;99.90;;;;;;5058884;28;20067;-82
2022/01/28 01:08:46;;;;;;;10.73;1.77;;;4.70;99.90;;;;;;5042690;28;20048;-83
2022/01/28 01:11:12;;;;;;;19.50;4.00;;;4.70;99.90;;;;;;5044361;28;20048;-82
2022/01/28 01:13:40;;;;;;;13.38;2.13;;;4.70;99.90;;;;;;5025661;28;20514;-81
2022/01/28 01:16:07;;;;;;;16.13;2.55;;;4.80;99.90;;;;;;5053844;28;20033;-81
2022/01/28 01:18:46;;;;;;;16.10;2.35;;;4.80;99.90;;;;;;5039286;28;20053;-81
2022/01/28 01:21:21;;;;;;;9.95;1.25;;;4.90;99.90;;;;;;5039822;28;20042;-80
2022/01/28 01:23:55;;;;;;;9.77;1.63;;;5.00;99.90;;;;;;5022421;28;20033;-81
2022/01/28 01:26:30;;;;;;;6.80;1.98;;;5.10;99.90;;;;;;5043370;28;20033;-81
2022/01/28 01:28:56;;;;;;;8.38;2.58;;;5.10;99.90;;;;;;5061508;28;20112;-82
2022/01/28 01:31:22;;;;;;;12.30;2.45;;;4.80;99.90;;;;;;5061973;28;20494;-83
2022/01/28 01:33:55;;;;;;;10.82;1.95;;;4.60;99.90;;;;;;5039002;28;20036;-83
2022/01/28 01:36:21;;;;;;;20.52;2.42;;;4.50;99.90;;;;;;5060747;28;20472;-81
2022/01/28 01:38:47;;;;;;;8.73;1.42;;;4.30;99.90;;;;;;5059483;28;20064;-81
2022/01/28 01:41:19;;;;;;;10.65;1.25;;;4.20;99.90;;;;;;5058538;28;20044;-81
2022/01/28 01:54:12;;;;;;;11.75;1.10;;;4.10;99.90;;;;;;5058119;28;20041;-81
2022/01/28 01:56:39;;;;;;;11.68;2.08;;;4.20;99.90;;;;;;5057664;28;20116;-82
2022/01/28 01:59:07;;;;;;;14.98;2.38;;;4.30;99.90;;;;;;5057989;28;20051;-83
2022/01/28 02:01:33;;;;;;;14.15;2.35;;;4.60;99.90;;;;;;5056642;28;20040;-82
2022/01/28 02:03:58;;;;;;;17.48;2.53;;;4.60;99.90;;;;;;5055640;28;20523;-81
2022/01/28 02:06:24;;;;;;;13.82;2.78;;;4.80;99.90;;;;;;5043805;28;20094;-81
2022/01/28 02:08:50;;;;;;;11.93;3.67;;;4.80;99.90;;;;;;5056039;28;20099;-81
2022/01/28 02:11:16;;;;;;;13.23;2.80;;;4.90;99.90;;;;;;5039514;28;20037;-81
2022/01/28 02:13:47;;;;;;;15.27;2.55;;;5.00;99.90;;;;;;5055169;28;20075;-81
2022/01/28 02:16:13;;;;;;;11.07;2.35;;;5.00;99.90;;;;;;5055930;28;20033;-81
2022/01/28 02:18:38;;;;;;;17.40;2.88;;;5.00;99.90;;;;;;5039848;28;20063;-81
2022/01/28 02:21:07;;;;;;;14.70;3.58;;;5.00;99.90;;;;;;5040221;28;20068;-81
2022/01/28 02:23:34;;;;;;;12.65;2.00;;;5.10;99.90;;;;;;5044059;28;20036;-81
2022/01/28 02:26:01;;;;;;;20.90;2.20;;;5.10;99.90;;;;;;5055811;28;20049;-81
2022/01/28 02:28:29;;;;;;;13.60;2.45;;;5.10;99.90;;;;;;5038634;28;20438;-81
2022/01/28 02:30:55;;;;;;;12.98;2.53;;;5.10;99.90;;;;;;5055868;28;20049;-81
2022/01/28 02:33:24;;;;;;;8.80;2.72;;;5.20;99.90;;;;;;5037967;28;20035;-81
2022/01/28 02:35:51;;;;;;;19.10;3.25;;;5.20;99.90;;;;;;5056723;28;20041;-81
2022/01/28 02:38:20;;;;;;;11.18;2.75;;;5.30;99.90;;;;;;5055188;28;20067;-81
2022/01/28 02:40:57;;;;;;;20.90;3.30;;;5.20;99.90;;;;;;5056139;28;20510;-81
2022/01/28 02:43:28;;;;;;;5.53;1.42;;;5.20;99.90;;;;;;5054783;28;20033;-82
2022/01/28 02:45:56;;;;;;;11.68;2.03;;;5.30;99.90;;;;;;5035840;28;20099;-82
2022/01/28 02:48:28;;;;;;;13.20;4.82;;;5.40;99.90;;;;;;5002294;28;20052;-81
2022/01/28 02:51:09;;;;;;;14.43;2.50;;;5.40;99.90;;;;;;5034615;28;20056;-81
2022/01/28 02:53:40;;;;;;;14.65;2.90;;;5.40;99.90;;;;;;5024891;28;20044;-82
2022/01/28 02:56:14;;;;;;;19.83;3.67;;;5.40;99.90;;;;;;5051327;28;20044;-82
2022/01/28 02:58:41;;;;;;;12.02;2.58;;;5.40;99.90;;;;;;5055985;28;20048;-81
2022/01/28 03:01:07;;;;;;;16.45;2.63;;;5.40;99.90;;;;;;5054062;28;20083;-81
2022/01/28 03:03:33;;;;;;;14.88;2.85;;;5.30;99.90;;;;;;5054638;28;20102;-82
2022/01/28 03:05:58;;;;;;;17.50;2.85;;;5.20;99.90;;;;;;5045034;28;20083;-81
2022/01/28 03:08:28;;;;;;;17.45;4.07;;;5.20;99.90;;;;;;5034546;28;20056;-81
2022/01/28 03:13:57;;;;;;;20.25;2.88;;;5.00;99.90;;;;;;5023567;28;20144;-81
2022/01/28 03:16:21;;;;;;;12.20;3.00;;;5.10;99.90;;;;;;5053391;28;20048;-81
2022/01/28 03:18:54;;;;;;;8.07;2.50;;;5.20;99.90;;;;;;5037833;28;20037;-81
2022/01/28 03:23:49;;;;;;;18.08;2.97;;;5.20;99.90;;;;;;5052112;28;20108;-81
2022/01/28 03:26:15;;;;;;;16.00;2.47;;;5.20;99.90;;;;;;5038141;28;20072;-81
2022/01/28 03:28:41;;;;;;;14.90;3.38;;;5.20;99.90;;;;;;5052857;28;20120;-82
2022/01/28 03:31:07;;;;;;;19.58;3.70;;;5.30;99.90;;;;;;5026015;28;20484;-82
2022/01/28 03:33:34;;;;;;;13.70;3.08;;;5.40;99.90;;;;;;5052780;28;20036;-82
2022/01/28 03:36:02;;;;;;;12.23;3.58;;;5.40;99.90;;;;;;5036361;28;20049;-81
2022/01/28 03:38:28;;;;;;;12.40;3.42;;;5.40;99.90;;;;;;5037212;28;20033;-82
2022/01/28 03:40:56;;;;;;;16.45;3.20;;;5.50;99.90;;;;;;5036787;28;20037;-80
2022/01/28 03:43:22;;;;;;;16.08;3.35;;;5.50;99.90;;;;;;5051766;28;20451;-82
2022/01/28 03:45:47;;;;;;;12.25;2.25;;;5.50;99.90;;;;;;5020584;28;20079;-81
2022/01/28 03:48:13;;;;;;;16.67;2.60;;;5.50;99.90;;;;;;5036919;28;20049;-80
2022/01/28 03:50:39;;;;;;;23.35;4.43;;;5.50;99.90;;;;;;5037176;28;20044;-81
2022/01/28 03:53:08;;;;;;;13.55;3.13;;;5.60;99.90;;;;;;5052396;28;20111;-82
2022/01/28 03:55:34;;;;;;;13.63;2.08;;;5.70;99.90;;;;;;5036122;28;20041;-81
2022/01/28 03:58:00;;;;;;;11.32;2.45;;;5.50;99.90;;;;;;5054169;28;20047;-82
2022/01/28 04:00:30;;;;;;;14.60;2.67;;;5.60;99.90;;;;;;5053206;28;20048;-81
2022/01/28 04:13:45;;;;;;;13.93;2.47;;;5.60;99.90;;;;;;5052397;28;20482;-81
2022/01/28 04:18:45;;;;;;;13.88;2.45;;;5.70;99.90;;;;;;5052115;28;20128;-81
2022/01/28 04:21:11;;;;;;;17.23;3.47;;;5.70;99.90;;;;;;5039624;28;20084;-82
2022/01/28 04:23:36;;;;;;;15.68;2.53;;;5.70;99.90;;;;;;5037064;28;20035;-83
2022/01/28 04:26:02;;;;;;;13.68;3.28;;;5.70;99.90;;;;;;5041317;28;20059;-82
2022/01/28 04:28:28;;;;;;;13.13;2.45;;;5.70;99.90;;;;;;5042191;28;20036;-82
2022/01/28 04:30:54;;;;;;;11.60;1.92;;;5.80;99.90;;;;;;5059354;28;20076;-82
2022/01/28 04:33:19;;;;;;;15.60;2.10;;;5.70;99.90;;;;;;5028860;28;20045;-81
2022/01/28 04:35:48;;;;;;;14.73;2.20;;;5.70;99.90;;;;;;5060869;28;20048;-82
2022/01/28 04:38:37;;;;;;;12.45;2.17;;;5.70;99.90;;;;;;5042144;28;20392;-82
2022/01/28 04:41:23;;;;;;;12.20;2.13;;;5.70;99.90;;;;;;5040637;28;20049;-82
2022/01/28 04:43:56;;;;;;;9.98;2.35;;;5.70;99.90;;;;;;5063687;28;20079;-82
2022/01/28 04:59:19;;;;;;;11.77;2.30;;;5.50;99.90;;;;;;5065466;28;20052;-82
2022/01/28 05:12:33;;;;;;;11.52;2.10;;;5.40;99.90;;;;;;5065180;28;20045;-81
2022/01/28 05:15:16;;;;;;;14.68;1.90;;;5.40;99.90;;;;;;5062025;28;20045;-81
2022/01/28 05:23:21;;;;;;;11.65;1.90;;;4.80;99.90;;;;;;5062849;28;20283;-82
2022/01/28 05:28:26;;;;;;;15.03;2.03;;;5.30;99.90;;;;;;5048240;28;20055;-81
2022/01/28 05:30:51;;;;;;;12.02;2.75;;;5.20;99.90;;;;;;5064819;28;20045;-81
2022/01/28 05:33:18;;;;;;;16.42;2.70;;;5.20;99.90;;;;;;5056903;28;20142;-81
2022/01/28 05:35:43;;;;;;;12.45;2.55;;;5.10;99.90;;;;;;5062522;28;20045;-81
2022/01/28 05:38:09;;;;;;;17.60;3.00;;;5.10;99.90;;;;;;5046919;28;20041;-82
2022/01/28 05:40:34;;;;;;;19.60;3.78;;;5.00;99.90;;;;;;5065722;28;20071;-80
2022/01/28 05:43:00;;;;;;;12.00;2.50;;;4.90;99.90;;;;;;5051854;28;20059;-81
2022/01/28 05:45:26;;;;;;;11.02;2.80;;;4.60;99.90;;;;;;5049764;28;20071;-81
2022/01/28 05:47:51;;;;;;;13.95;2.95;;;4.90;99.90;;;;;;5067636;28;20073;-81
2022/01/28 05:50:17;;;;;;;20.63;5.30;;;4.80;99.90;;;;;;5066251;28;20060;-81
2022/01/28 05:52:43;;;;;;;16.50;2.65;;;4.90;99.90;;;;;;5069029;28;20064;-80
2022/01/28 05:55:08;;;;;;;11.75;2.53;;;4.90;99.90;;;;;;5070299;28;20041;-81
2022/01/28 05:57:34;;;;;;;11.75;2.15;;;5.00;99.90;;;;;;5052585;28;20052;-81
2022/01/28 06:00:00;;;;;;;9.93;2.45;;;4.90;99.90;;;;;;5062331;28;20045;-81
2022/01/28 06:02:25;;;;;;;17.92;3.42;;;5.00;99.90;;;;;;5062729;28;20053;-81
2022/01/28 06:04:51;;;;;;;18.92;4.70;;;5.10;99.90;;;;;;5069607;28;20040;-81
2022/01/28 06:07:19;;;;;;;16.20;3.63;;;5.10;99.90;;;;;;5072038;28;20063;-81
2022/01/28 06:09:45;;;;;;;15.57;2.60;;;4.70;99.90;;;;;;5068837;28;20098;-81
2022/01/28 06:12:11;;;;;;;16.35;2.65;;;5.20;99.90;;;;;;5070227;28;20053;-81
2022/01/28 06:14:36;;;;;;;16.45;2.25;;;5.20;99.90;;;;;;5072128;28;20044;-81
2022/01/28 06:17:02;;;;;;;20.35;2.78;;;5.20;99.90;;;;;;5051979;28;20072;-82
2022/01/28 06:19:28;;;;;;;14.60;2.30;;;5.20;99.90;;;;;;5037770;28;20045;-81
2022/01/28 06:21:54;;;;;;;11.60;2.63;;;5.20;99.90;;;;;;5036991;28;20131;-82
2022/01/28 06:24:19;;;;;;;8.50;3.35;;;5.20;99.90;;;;;;5070886;28;20044;-82
2022/01/28 06:26:45;;;;;;;23.75;5.10;;;5.20;99.90;;;;;;5070378;28;20088;-81
2022/01/28 06:29:12;;;;;;;15.52;2.83;;;5.20;99.90;;;;;;5070141;28;20037;-81
2022/01/28 06:31:38;;;;;;;12.40;1.95;;;5.20;99.90;;;;;;5065637;28;20059;-80
2022/01/28 06:34:04;;;;;;;15.43;3.28;;;5.10;99.90;;;;;;5060058;28;20041;-81
2022/01/28 06:36:30;;;;;;;14.63;2.88;;;5.10;99.90;;;;;;5033465;28;20120;-81
2022/01/28 06:38:56;;;;;;;12.60;3.17;;;5.10;99.90;;;;;;5053193;28;20057;-81
2022/01/28 06:41:21;;;;;;;21.73;3.28;;;5.00;99.90;;;;;;5042479;28;20075;-80
2022/01/28 06:43:47;;;;;;;15.63;2.78;;;5.00;99.90;;;;;;5076924;28;20087;-80
2022/01/28 06:46:12;;;;;;;12.30;2.83;;;4.90;99.90;;;;;;5076554;28;20028;-80
2022/01/28 06:48:38;;;;;;;9.77;2.90;;;4.90;99.90;;;;;;5076704;28;20068;-80
2022/01/28 06:51:04;;;;;;;14.63;2.50;;;4.80;99.90;;;;;;5075134;28;20041;-81
2022/01/28 06:53:29;;;;;;;5.35;1.58;;;4.80;99.90;;;;;;5060200;28;20037;-80
2022/01/28 06:55:55;;;;;;;10.52;1.67;;;4.90;99.90;;;;;;5059450;28;20044;-80
2022/01/28 06:58:21;;;;;;;15.30;1.60;;;4.70;99.90;;;;;;5060029;28;20055;-81
2022/01/28 07:00:46;;;;;;;13.38;2.90;;;4.60;99.90;;;;;;5069212;28;20079;-80
2022/01/28 07:03:14;;;;;;;13.25;2.20;;;4.60;99.90;;;;;;5048211;28;20411;-80
2022/01/28 07:05:40;;;;;;;15.77;2.95;;;4.60;99.90;;;;;;5033515;28;20055;-81
2022/01/28 07:08:07;;;;;;;20.15;4.00;;;4.70;99.90;;;;;;5049660;28;20037;-81
2022/01/28 07:10:34;;;;;;;13.93;3.10;;;5.30;99.90;;;;;;5067066;28;20063;-80
2022/01/28 07:13:01;;;;;;;15.68;2.90;;;4.70;99.90;;;;;;5067883;28;20037;-80
2022/01/28 07:15:27;;;;;;;17.67;2.80;;;4.70;99.90;;;;;;5066823;28;20068;-81
2022/01/28 07:17:54;;;;;;;19.08;2.83;;;4.70;99.90;;;;;;5066764;28;20032;-81
2022/01/28 07:20:20;;;;;;;17.02;2.80;;;4.50;99.90;;;;;;5067943;28;20047;-81
2022/01/28 07:22:46;;;;;;;14.10;3.35;;;4.50;99.90;;;;;;5056236;28;20108;-82
2022/01/28 07:25:11;;;;;;;18.52;3.75;;;4.50;99.90;;;;;;5051229;28;20388;-81
2022/01/28 07:27:37;;;;;;;10.25;2.35;;;4.70;99.90;;;;;;5050455;28;20063;-81
2022/01/28 07:30:04;;;;;;;13.93;3.67;;;4.50;99.90;;;;;;5068137;28;20100;-81
2022/01/28 07:32:30;;;;;;;11.13;2.85;;;4.50;99.90;;;;;;5068036;28;20060;-81
2022/01/28 07:34:55;;;;;;;14.43;3.25;;;4.70;99.90;;;;;;5067782;28;20029;-80
2022/01/28 07:37:21;;;;;;;22.10;4.05;;;4.60;99.90;;;;;;5066955;28;20037;-81
2022/01/28 07:39:46;;;;;;;8.65;2.38;;;4.60;99.90;;;;;;5067267;28;20119;-81
2022/01/28 07:42:12;;;;;;;13.52;3.53;;;4.70;99.90;;;;;;5059216;28;20097;-81
2022/01/28 07:44:38;;;;;;;14.05;2.50;;;4.70;99.90;;;;;;5066492;28;20045;-81
2022/01/28 07:47:04;;;;;;;13.07;3.25;;;4.70;99.90;;;;;;5067719;28;20037;-80
2022/01/28 07:49:29;;;;;;;18.27;3.22;;;4.70;99.90;;;;;;5067692;28;20037;-80
2022/01/28 07:51:55;;;;;;;16.67;2.35;;;4.70;99.90;;;;;;5067961;28;20037;-81
2022/01/28 07:54:21;;;;;;;13.75;2.30;;;4.70;99.90;;;;;;5049299;28;20041;-81
2022/01/28 07:56:51;;;;;;;8.90;3.60;;;4.80;99.90;;;;;;5067821;28;20106;-81
2022/01/28 07:59:17;;;;;;;13.45;3.40;;;4.70;99.90;;;;;;5067862;28;20059;-80
2022/01/28 08:01:42;;;;;;;16.75;3.53;;;4.70;99.90;;;;;;5054691;28;20041;-80
2022/01/28 08:04:08;;;;;;;9.10;2.05;;;4.70;99.90;;;;;;5049939;28;20051;-80
2022/01/28 08:06:34;;;;;;;16.45;3.33;;;4.70;99.90;;;;;;5049667;28;20055;-80
2022/01/28 08:09:00;;;;;;;11.75;2.47;;;4.70;99.90;;;;;;5065986;28;20049;-80
2022/01/28 08:11:26;;;;;;;15.20;2.53;;;4.70;99.90;;;;;;5069037;28;20047;-80
2022/01/28 08:13:52;;;;;;;15.32;3.33;;;4.70;99.90;;;;;;5056782;28;20037;-80
2022/01/28 08:16:17;;;;;;;17.80;3.50;;;4.80;99.90;;;;;;5044338;28;20052;-80
2022/01/28 08:18:43;;;;;;;15.27;2.88;;;4.70;99.90;;;;;;5033581;28;20507;-81
2022/01/28 08:21:09;;;;;;;13.77;1.83;;;4.70;99.90;;;;;;5051599;28;20048;-81
2022/01/28 08:23:35;;;;;;;17.50;2.75;;;4.80;99.90;;;;;;5069023;28;20013;-81
2022/01/28 08:26:02;;;;;;;17.05;2.42;;;4.80;99.90;;;;;;5068506;28;20045;-81
2022/01/28 08:28:27;;;;;;;14.23;3.67;;;4.90;99.90;;;;;;5051515;28;20056;-81
2022/01/28 08:30:54;;;;;;;28.90;4.90;;;4.90;99.90;;;;;;5068412;28;20037;-81
2022/01/28 08:33:20;;;;;;;17.63;2.70;;;5.00;99.90;;;;;;5055869;28;20037;-80
2022/01/28 08:35:51;;;;;;;12.25;2.22;;;4.60;99.90;;;;;;5067537;28;20101;-80
2022/01/28 08:38:25;;;;;;;15.50;2.63;;;5.00;99.90;;;;;;5069833;28;20056;-81
2022/01/28 08:40:52;;;;;;;20.73;5.20;;;5.00;99.90;;;;;;5067487;28;20073;-80
2022/01/28 08:43:19;;;;;;;14.85;2.67;;;4.90;99.90;;;;;;5064195;28;20516;-82
2022/01/28 08:45:44;;;;;;;17.48;4.93;;;5.10;99.90;;;;;;5047498;28;20051;-82
2022/01/28 08:48:10;;;;;;;18.30;4.35;;;4.80;99.90;;;;;;5032402;28;20106;-81
2022/01/28 08:50:35;;;;;;;24.15;6.15;;;4.70;99.90;;;;;;5042575;28;20041;-80
2022/01/28 08:53:01;;;;;;;13.45;3.03;;;4.70;99.90;;;;;;5052632;28;20072;-80
2022/01/28 08:55:27;;;;;;;18.13;3.40;;;4.70;99.90;;;;;;5067400;28;20037;-80
2022/01/28 08:57:53;;;;;;;16.13;3.78;;;4.70;99.90;;;;;;5067799;28;20041;-80
2022/01/28 09:00:21;;;;;;;15.70;3.30;;;4.80;99.90;;;;;;5067021;28;20053;-80
2022/01/28 09:02:48;;;;;;;14.05;3.33;;;4.90;99.90;;;;;;5068154;28;20055;-79
2022/01/28 09:05:14;;;;;;;28.48;5.53;;;5.00;99.90;;;;;;5068065;28;20048;-80
2022/01/28 09:07:40;;;;;;;38.65;15.27;;;5.10;99.90;;;;;;5066277;28;20036;-81
2022/01/28 09:10:18;;;;;;;15.70;2.97;;;5.20;99.90;;;;;;5049914;28;20041;-81
2022/01/28 09:15:38;;;;;;;20.92;11.43;;;5.30;99.90;;;;;;5068654;28;20135;-81
2022/01/28 09:18:04;;;;;;;18.70;2.35;;;5.40;99.90;;;;;;5067917;28;20044;-80
2022/01/28 09:20:32;;;;;;;19.60;3.78;;;5.40;99.90;;;;;;5069222;28;20101;-81
2022/01/28 09:22:59;;;;;;;20.40;2.90;;;5.40;99.90;;;;;;5067051;28;20055;-80
2022/01/28 09:25:26;;;;;;;11.23;3.03;;;5.50;99.90;;;;;;5067728;28;20041;-80
2022/01/28 09:27:51;;;;;;;15.98;4.05;;;5.60;99.90;;;;;;5070972;28;20120;-80
2022/01/28 09:30:17;;;;;;;21.10;2.35;;;5.30;99.90;;;;;;5073178;28;20048;-80
2022/01/28 09:32:43;;;;;;;11.88;2.67;;;5.70;99.90;;;;;;5071237;28;20059;-81
2022/01/28 09:35:09;;;;;;;20.55;3.63;;;5.80;99.90;;;;;;5073087;28;20040;-80
2022/01/28 09:37:34;;;;;;;18.35;4.78;;;5.80;99.90;;;;;;5071356;28;20136;-80
2022/01/28 09:40:01;;;;;;;19.27;3.33;;;5.90;99.90;;;;;;5071578;28;20044;-80
2022/01/28 09:42:30;;;;;;;10.23;2.75;;;6.00;99.90;;;;;;5058781;28;20051;-80
2022/01/28 09:44:58;;;;;;;15.05;2.28;;;6.10;99.90;;;;;;5055524;28;20459;-80
2022/01/28 09:47:24;;;;;;;12.65;3.03;;;6.20;99.90;;;;;;5072747;28;20041;-82
2022/01/28 09:49:50;;;;;;;42.92;18.98;;;6.30;99.90;;;;;;5070565;28;20048;-82
2022/01/28 09:52:17;;;;;;;13.15;2.72;;;6.40;99.90;;;;;;5052820;28;20036;-82
2022/01/28 09:54:46;;;;;;;10.05;2.88;;;6.50;99.90;;;;;;5069401;28;20052;-82
2022/01/28 09:57:16;;;;;;;15.43;2.55;;;6.60;99.90;;;;;;5063360;28;20092;-82
2022/01/28 09:59:42;;;;;;;21.80;3.80;;;6.60;99.90;;;;;;5069159;28;20033;-82
2022/01/28 10:02:08;;;;;;;15.98;3.22;;;6.70;99.90;;;;;;5071852;28;20037;-80
2022/01/28 10:04:34;;;;;;;19.75;2.80;;;6.80;99.90;;;;;;5071421;28;20105;-82
2022/01/28 10:07:12;;;;;;;16.63;3.10;;;6.90;99.90;;;;;;5072576;28;20319;-79
2022/01/28 10:09:58;;;;;;;18.40;4.00;;;7.10;99.90;;;;;;5062735;28;20045;-80
2022/01/28 10:12:39;;;;;;;20.40;3.30;;;7.30;99.90;;;;;;5071283;28;20055;-80
2022/01/28 10:15:17;;;;;;;17.90;2.83;;;7.30;99.90;;;;;;5071597;28;20040;-80
2022/01/28 10:17:53;;;;;;;17.92;3.20;;;7.40;99.90;;;;;;5070211;28;20115;-80
2022/01/28 10:20:24;;;;;;;8.98;2.33;;;7.40;99.90;;;;;;5065660;28;20037;-80
2022/01/28 10:22:51;;;;;;;20.70;4.65;;;7.30;99.90;;;;;;5055764;28;20029;-80
2022/01/28 10:25:26;;;;;;;10.60;2.70;;;7.40;99.90;;;;;;5053414;28;20063;-80
2022/01/28 10:28:06;;;;;;;13.43;2.50;;;7.40;99.90;;;;;;5055176;28;20055;-80
2022/01/28 10:30:38;;;;;;;17.65;2.20;;;7.40;99.90;;;;;;5040132;28;20045;-81
2022/01/28 10:33:11;;;;;;;10.18;2.38;;;7.40;99.90;;;;;;5041067;28;20103;-80
2022/01/28 10:35:37;;;;;;;16.50;2.65;;;7.40;99.90;;;;;;5057359;28;20403;-81
2022/01/28 10:38:04;;;;;;;15.98;2.65;;;7.30;99.90;;;;;;5056869;28;20045;-81
2022/01/28 10:40:29;;;;;;;13.98;2.72;;;7.40;99.90;;;;;;5057950;28;20125;-82
2022/01/28 10:42:55;;;;;;;15.23;3.15;;;7.40;99.90;;;;;;5040162;28;20041;-81
2022/01/28 10:45:28;;;;;;;14.07;2.20;;;7.30;99.90;;;;;;5041206;28;20060;-81
2022/01/28 10:47:55;;;;;;;14.82;2.10;;;7.30;99.90;;;;;;5057283;28;20114;-81
2022/01/28 10:50:25;;;;;;;12.48;3.33;;;7.50;99.90;;;;;;5058825;28;20091;-80
2022/01/28 10:53:00;;;;;;;15.48;2.78;;;7.70;99.90;;;;;;5057095;28;20083;-80
2022/01/28 10:55:27;;;;;;;11.23;4.50;;;8.10;99.90;;;;;;5057936;28;20061;-81
2022/01/28 10:57:57;;;;;;;14.50;3.30;;;8.30;99.90;;;;;;5040193;28;20064;-81
2022/01/28 11:00:31;;;;;;;10.30;2.92;;;8.60;99.90;;;;;;5057172;28;20147;-81
2022/01/28 11:03:05;;;;;;;14.52;2.40;;;8.60;99.90;;;;;;5057283;28;20119;-80
2022/01/28 11:05:33;;;;;;;15.95;3.47;;;8.50;99.90;;;;;;5040124;28;20375;-82
2022/01/28 11:07:59;;;;;;;11.40;3.58;;;8.50;99.90;;;;;;5057069;28;20071;-81
2022/01/28 11:10:24;;;;;;;15.55;3.15;;;8.40;99.90;;;;;;5023581;28;20045;-81
2022/01/28 11:12:54;;;;;;;10.48;2.70;;;8.30;99.90;;;;;;5046315;28;20123;-82
2022/01/28 11:15:22;;;;;;;13.30;3.20;;;8.20;99.90;;;;;;5055937;28;20120;-81
2022/01/28 11:17:50;;;;;;;9.30;2.47;;;8.00;99.90;;;;;;5046509;28;20063;-81
2022/01/28 11:20:20;;;;;;;78.88;46.45;;;7.90;99.90;;;;;;5056378;28;20053;-82
2022/01/28 11:23:08;;;;;;;34.88;12.95;;;7.90;99.90;;;;;;5041646;28;20037;-81
2022/01/28 11:25:43;;;;;;;16.45;3.30;;;8.00;99.90;;;;;;5039190;28;20060;-82
2022/01/28 11:28:12;;;;;;;67.35;32.05;;;8.20;99.90;;;;;;5056449;28;20380;-81
2022/01/28 11:30:51;;;;;;;29.08;8.98;;;8.30;99.90;;;;;;5040484;28;20045;-81
2022/01/28 11:33:18;;;;;;;15.70;4.20;;;8.50;99.90;;;;;;5041916;28;20033;-81
2022/01/28 11:35:46;;;;;;;12.60;3.42;;;8.60;99.90;;;;;;5051076;28;20051;-82
2022/01/28 11:38:43;;;;;;;14.77;3.08;;;8.40;99.90;;;;;;5051143;28;20053;-81
2022/01/28 11:41:10;;;;;;;17.38;3.03;;;8.30;99.90;;;;;;5024581;28;20404;-81
2022/01/28 11:43:49;;;;;;;23.60;3.05;;;8.20;99.90;;;;;;5056063;28;20040;-82
2022/01/28 11:46:27;;;;;;;9.75;2.28;;;8.20;99.90;;;;;;5055786;28;20044;-81
2022/01/28 11:48:53;;;;;;;16.02;3.05;;;8.10;99.90;;;;;;5037555;28;20037;-82
2022/01/28 11:51:20;;;;;;;10.98;3.47;;;8.00;99.90;;;;;;5040234;28;20466;-81
2022/01/28 11:54:00;;;;;;;67.28;29.52;;;7.90;99.90;;;;;;5020198;28;20037;-81
2022/01/28 11:56:27;;;;;;;11.25;2.63;;;7.80;99.90;;;;;;5019464;28;20041;-81
2022/01/28 11:59:00;;;;;;;13.48;2.50;;;7.70;99.90;;;;;;5020958;28;20101;-81
2022/01/28 12:01:46;;;;;;;21.63;3.78;;;7.60;99.90;;;;;;5037042;28;20036;-81
2022/01/28 12:04:27;;;;;;;17.77;3.38;;;8.00;99.90;;;;;;5046139;28;20072;-82
2022/01/28 12:07:04;;;;;;;14.68;3.17;;;8.30;99.90;;;;;;5049577;28;20044;-82
2022/01/28 12:09:35;;;;;;;15.55;2.72;;;8.50;99.90;;;;;;5056199;28;20144;-82
2022/01/28 12:12:02;;;;;;;9.85;2.88;;;8.30;99.90;;;;;;5039844;28;20037;-81
2022/01/28 12:14:55;;;;;;;13.48;2.45;;;8.10;99.90;;;;;;5003765;28;20045;-82
2022/01/28 12:17:33;;;;;;;14.88;3.70;;;7.90;99.90;;;;;;5037034;28;20042;-81
2022/01/28 12:20:34;;;;;;;14.82;3.47;;;7.80;99.90;;;;;;5043610;28;20094;-82
2022/01/28 12:23:10;;;;;;;15.32;3.17;;;7.90;99.90;;;;;;5036877;28;20053;-82
2022/01/28 12:25:36;;;;;;;12.73;2.50;;;7.90;99.90;;;;;;5022368;28;20086;-83
2022/01/28 12:28:27;;;;;;;13.35;4.00;;;8.00;99.90;;;;;;5038516;28;20077;-82
2022/01/28 12:30:59;;;;;;;17.42;3.90;;;8.20;99.90;;;;;;5048330;28;20069;-80
2022/01/28 12:33:27;;;;;;;15.77;4.45;;;8.40;99.90;;;;;;5068809;28;20033;-83
2022/01/28 12:35:56;;;;;;;9.15;1.98;;;8.40;99.90;;;;;;5072484;28;20124;-82
2022/01/28 12:38:23;;;;;;;13.68;3.95;;;8.40;99.90;;;;;;5054175;28;20101;-80
2022/01/28 12:40:52;;;;;;;9.43;1.67;;;8.60;99.90;;;;;;5068210;28;20053;-79
2022/01/28 12:43:20;;;;;;;13.90;3.47;;;8.80;99.90;;;;;;5070393;28;20051;-81
2022/01/28 12:46:09;;;;;;;11.48;2.47;;;8.70;99.90;;;;;;5072041;28;20080;-82
2022/01/28 12:48:36;;;;;;;10.30;1.80;;;8.60;99.90;;;;;;5066369;28;20045;-79
2022/01/28 12:51:04;;;;;;;12.57;3.30;;;8.30;99.90;;;;;;5030711;28;20071;-79
2022/01/28 12:53:41;;;;;;;15.10;2.35;;;8.40;99.90;;;;;;5055684;28;20107;-80
2022/01/28 12:56:08;;;;;;;10.75;3.13;;;8.60;99.90;;;;;;5053090;28;20036;-79
2022/01/28 12:58:38;;;;;;;15.70;1.90;;;8.90;99.90;;;;;;5055140;28;20029;-80
2022/01/28 13:01:09;;;;;;;11.60;1.85;;;8.80;99.90;;;;;;5043245;28;20053;-80
2022/01/28 13:03:46;;;;;;;13.52;2.80;;;8.50;99.90;;;;;;5055857;28;20041;-80
2022/01/28 13:09:15;;;;;;;14.40;5.10;;;8.20;99.90;;;;;;5038565;28;20063;-80
2022/01/28 13:11:47;;;;;;;14.95;3.65;;;8.10;99.90;;;;;;5043485;28;20060;-80
2022/01/28 13:14:14;;;;;;;15.43;1.48;;;7.90;99.90;;;;;;5041987;28;20076;-79
2022/01/28 13:16:42;;;;;;;14.68;2.65;;;7.80;99.90;;;;;;5040683;28;20041;-80
2022/01/28 13:19:10;;;;;;;24.20;6.45;;;7.70;99.90;;;;;;5042878;28;20041;-81
2022/01/28 13:21:36;;;;;;;19.60;5.07;;;7.70;99.90;;;;;;5057534;28;20099;-80
2022/01/28 13:24:08;;;;;;;12.68;3.00;;;7.70;99.90;;;;;;5058277;28;20037;-80
2022/01/28 13:26:34;;;;;;;9.45;2.10;;;8.00;99.90;;;;;;5032518;28;20036;-81
2022/01/28 13:29:05;;;;;;;7.63;1.40;;;8.40;99.90;;;;;;5028737;28;20036;-80
2022/01/28 13:31:31;;;;;;;13.77;2.60;;;8.80;99.90;;;;;;5052798;28;20495;-81
2022/01/28 13:33:58;;;;;;;13.43;1.85;;;9.00;99.90;;;;;;5066802;28;20033;-80
2022/01/28 13:36:24;;;;;;;13.38;3.28;;;8.90;99.90;;;;;;5032629;28;20064;-80
2022/01/28 13:38:49;;;;;;;11.25;2.05;;;8.70;99.90;;;;;;5057979;28;20037;-80
2022/01/28 13:41:24;;;;;;;12.55;3.38;;;8.40;99.90;;;;;;5063810;28;20093;-80
2022/01/28 13:43:50;;;;;;;12.32;2.47;;;8.30;99.90;;;;;;5052990;28;20072;-81
2022/01/28 13:46:15;;;;;;;13.30;2.13;;;8.20;99.90;;;;;;5065310;28;20051;-81
2022/01/28 13:48:42;;;;;;;15.65;2.70;;;8.10;99.90;;;;;;5062872;28;20045;-81
2022/01/28 13:51:17;;;;;;;14.55;3.97;;;8.10;99.90;;;;;;5057302;28;20535;-81
2022/01/28 13:56:31;;;;;;;14.25;2.72;;;8.10;99.90;;;;;;5051043;28;20045;-81
2022/01/28 13:58:57;;;;;;;6.43;1.75;;;8.00;99.90;;;;;;5048918;28;20033;-82
2022/01/28 14:01:25;;;;;;;12.68;2.42;;;7.90;99.90;;;;;;5052896;28;20044;-80
2022/01/28 14:03:59;;;;;;;14.50;2.97;;;8.00;99.90;;;;;;5049667;28;20068;-79
2022/01/28 14:06:30;;;;;;;10.82;2.90;;;8.10;99.90;;;;;;5056595;28;20120;-80
2022/01/28 14:09:18;;;;;;;12.38;1.80;;;8.20;99.90;;;;;;5059343;28;20049;-78
2022/01/28 14:11:47;;;;;;;10.80;1.60;;;8.00;99.90;;;;;;5062989;28;20052;-79
2022/01/28 14:14:35;;;;;;;15.63;3.25;;;7.90;99.90;;;;;;5045881;28;20037;-80
2022/01/28 14:17:08;;;;;;;8.23;2.00;;;7.80;99.90;;;;;;5067213;28;20050;-80
2022/01/28 14:19:39;;;;;;;10.90;1.63;;;7.70;99.90;;;;;;5063905;28;20071;-80
2022/01/28 14:22:08;;;;;;;12.10;2.78;;;7.60;99.90;;;;;;5042138;28;20086;-80
2022/01/28 14:24:36;;;;;;;14.57;3.05;;;7.50;99.90;;;;;;5060493;28;20496;-82
2022/01/28 14:32:04;;;;;;;13.18;2.75;;;7.60;99.90;;;;;;5064573;28;20044;-80